sensor_id;sensor_type;location;lat;lon;timestamp;temperature;humidity
11609;DHT22;5860;52.018;8.536;2022-12-16T00:00:05;-5.70;99.90
11609;DHT22;5860;52.018;8.536;2022-12-16T00:02:32;-5.70;99.90
11609;DHT22;5860;52.018;8.536;2022-12-16T00:04:59;-5.60;99.90
11609;DHT22;5860;52.018;8.536;2022-12-16T00:07:26;-5.60;99.90
11609;DHT22;5860;52.018;8.536;2022-12-16T00:09:53;-5.70;99.90
11609;DHT22;5860;52.018;8.536;2022-12-16T00:12:20;-5.90;99.90
11609;DHT22;5860;52.018;8.536;2022-12-16T00:14:47;-5.90;99.90
11609;DHT22;5860;52.018;8.536;2022-12-16T00:17:14;-5.90;99.90
11609;DHT22;5860;52.018;8.536;2022-12-16T00:19:41;-5.80;99.90
11609;DHT22;5860;52.018;8.536;2022-12-16T00:22:07;-5.90;99.90
11609;DHT22;5860;52.018;8.536;2022-12-16T00:24:34;-5.80;99.90
11609;DHT22;5860;52.018;8.536;2022-12-16T00:27:01;-6.00;99.90
11609;DHT22;5860;52.018;8.536;2022-12-16T00:29:28;-5.90;99.90
11609;DHT22;5860;52.018;8.536;2022-12-16T00:31:55;-5.80;99.90
11609;DHT22;5860;52.018;8.536;2022-12-16T00:34:22;-5.80;99.90
11609;DHT22;5860;52.018;8.536;2022-12-16T00:36:49;-5.80;99.90
11609;DHT22;5860;52.018;8.536;2022-12-16T00:39:16;-5.80;99.90
11609;DHT22;5860;52.018;8.536;2022-12-16T00:41:43;-5.80;99.90
11609;DHT22;5860;52.018;8.536;2022-12-16T00:44:10;-5.80;99.90
11609;DHT22;5860;52.018;8.536;2022-12-16T00:46:37;-5.80;99.90
11609;DHT22;5860;52.018;8.536;2022-12-16T00:49:04;-5.90;99.90
11609;DHT22;5860;52.018;8.536;2022-12-16T00:51:30;-6.00;99.90
11609;DHT22;5860;52.018;8.536;2022-12-16T00:53:57;-6.10;99.90
11609;DHT22;5860;52.018;8.536;2022-12-16T00:56:24;-6.10;99.90
11609;DHT22;5860;52.018;8.536;2022-12-16T00:58:51;-6.10;99.90
11609;DHT22;5860;52.018;8.536;2022-12-16T01:01:20;-6.10;99.90
11609;DHT22;5860;52.018;8.536;2022-12-16T01:03:47;-6.10;99.90
11609;DHT22;5860;52.018;8.536;2022-12-16T01:06:16;-6.10;99.90
11609;DHT22;5860;52.018;8.536;2022-12-16T01:08:44;-6.10;99.90
11609;DHT22;5860;52.018;8.536;2022-12-16T01:11:18;-6.10;99.90
11609;DHT22;5860;52.018;8.536;2022-12-16T01:13:48;-6.00;99.90
11609;DHT22;5860;52.018;8.536;2022-12-16T01:16:17;-6.10;99.90
11609;DHT22;5860;52.018;8.536;2022-12-16T01:18:44;-6.10;99.90
11609;DHT22;5860;52.018;8.536;2022-12-16T01:21:13;-6.10;99.90
11609;DHT22;5860;52.018;8.536;2022-12-16T01:23:40;-6.00;99.90
11609;DHT22;5860;52.018;8.536;2022-12-16T01:26:08;-5.90;99.90
11609;DHT22;5860;52.018;8.536;2022-12-16T01:28:35;-6.00;99.90
11609;DHT22;5860;52.018;8.536;2022-12-16T01:31:01;-6.00;99.90
11609;DHT22;5860;52.018;8.536;2022-12-16T01:33:30;-6.00;99.90
11609;DHT22;5860;52.018;8.536;2022-12-16T01:36:03;-6.00;99.90
11609;DHT22;5860;52.018;8.536;2022-12-16T01:38:31;-6.00;99.90
11609;DHT22;5860;52.018;8.536;2022-12-16T01:40:58;-6.00;99.90
11609;DHT22;5860;52.018;8.536;2022-12-16T01:43:31;-6.00;99.90
11609;DHT22;5860;52.018;8.536;2022-12-16T01:46:15;-6.10;99.90
11609;DHT22;5860;52.018;8.536;2022-12-16T01:48:49;-6.20;99.90
11609;DHT22;5860;52.018;8.536;2022-12-16T01:54:00;-6.10;99.90
11609;DHT22;5860;52.018;8.536;2022-12-16T01:56:30;-6.30;99.90
11609;DHT22;5860;52.018;8.536;2022-12-16T01:58:59;-6.30;99.90
11609;DHT22;5860;52.018;8.536;2022-12-16T02:01:27;-6.40;99.90
11609;DHT22;5860;52.018;8.536;2022-12-16T02:03:56;-6.40;99.90
11609;DHT22;5860;52.018;8.536;2022-12-16T02:06:24;-6.40;99.90
11609;DHT22;5860;52.018;8.536;2022-12-16T02:08:55;-6.40;99.90
11609;DHT22;5860;52.018;8.536;2022-12-16T02:14:32;-6.20;99.90
11609;DHT22;5860;52.018;8.536;2022-12-16T02:20:11;-6.40;99.90
11609;DHT22;5860;52.018;8.536;2022-12-16T02:37:05;-6.40;99.90
11609;DHT22;5860;52.018;8.536;2022-12-16T02:39:45;-6.30;99.90
11609;DHT22;5860;52.018;8.536;2022-12-16T02:42:46;-6.50;99.90
11609;DHT22;5860;52.018;8.536;2022-12-16T02:45:20;-6.50;99.90
11609;DHT22;5860;52.018;8.536;2022-12-16T02:47:48;-6.60;99.90
11609;DHT22;5860;52.018;8.536;2022-12-16T02:52:48;-6.70;99.90
11609;DHT22;5860;52.018;8.536;2022-12-16T02:55:16;-6.80;99.90
11609;DHT22;5860;52.018;8.536;2022-12-16T03:00:25;-6.80;99.90
11609;DHT22;5860;52.018;8.536;2022-12-16T03:03:15;-6.70;99.90
11609;DHT22;5860;52.018;8.536;2022-12-16T03:05:46;-6.70;99.90
11609;DHT22;5860;52.018;8.536;2022-12-16T03:08:28;-6.60;99.90
11609;DHT22;5860;52.018;8.536;2022-12-16T03:11:00;-6.50;99.90
11609;DHT22;5860;52.018;8.536;2022-12-16T03:13:31;-6.50;99.90
11609;DHT22;5860;52.018;8.536;2022-12-16T03:16:02;-6.50;99.90
11609;DHT22;5860;52.018;8.536;2022-12-16T03:18:32;-6.60;99.90
11609;DHT22;5860;52.018;8.536;2022-12-16T03:21:02;-6.60;99.90
11609;DHT22;5860;52.018;8.536;2022-12-16T03:23:56;-6.70;99.90
11609;DHT22;5860;52.018;8.536;2022-12-16T03:29:07;-6.80;99.90
11609;DHT22;5860;52.018;8.536;2022-12-16T03:34:40;-6.80;99.90
11609;DHT22;5860;52.018;8.536;2022-12-16T03:37:11;-6.80;99.90
11609;DHT22;5860;52.018;8.536;2022-12-16T03:39:45;-6.80;99.90
11609;DHT22;5860;52.018;8.536;2022-12-16T03:42:14;-6.70;99.90
11609;DHT22;5860;52.018;8.536;2022-12-16T03:44:43;-6.60;99.90
11609;DHT22;5860;52.018;8.536;2022-12-16T03:47:10;-6.50;99.90
11609;DHT22;5860;52.018;8.536;2022-12-16T03:49:38;-6.50;99.90
11609;DHT22;5860;52.018;8.536;2022-12-16T03:52:05;-6.60;99.90
11609;DHT22;5860;52.018;8.536;2022-12-16T03:54:32;-6.60;99.90
11609;DHT22;5860;52.018;8.536;2022-12-16T03:56:59;-6.60;99.90
11609;DHT22;5860;52.018;8.536;2022-12-16T03:59:25;-6.70;99.90
11609;DHT22;5860;52.018;8.536;2022-12-16T04:01:52;-6.70;99.90
11609;DHT22;5860;52.018;8.536;2022-12-16T04:04:19;-6.80;99.90
11609;DHT22;5860;52.018;8.536;2022-12-16T04:06:46;-6.70;99.90
11609;DHT22;5860;52.018;8.536;2022-12-16T04:09:33;-6.80;99.90
11609;DHT22;5860;52.018;8.536;2022-12-16T04:12:00;-6.70;99.90
11609;DHT22;5860;52.018;8.536;2022-12-16T04:14:45;-6.70;99.90
11609;DHT22;5860;52.018;8.536;2022-12-16T04:17:31;-6.80;99.90
11609;DHT22;5860;52.018;8.536;2022-12-16T04:20:17;-6.70;99.90
11609;DHT22;5860;52.018;8.536;2022-12-16T04:23:04;-6.80;99.90
11609;DHT22;5860;52.018;8.536;2022-12-16T04:25:49;-6.80;99.90
11609;DHT22;5860;52.018;8.536;2022-12-16T04:28:16;-6.70;99.90
11609;DHT22;5860;52.018;8.536;2022-12-16T04:30:43;-6.70;99.90
11609;DHT22;5860;52.018;8.536;2022-12-16T04:33:11;-6.80;99.90
11609;DHT22;5860;52.018;8.536;2022-12-16T04:35:59;-6.70;99.90
11609;DHT22;5860;52.018;8.536;2022-12-16T04:39:01;-6.80;99.90
11609;DHT22;5860;52.018;8.536;2022-12-16T04:41:50;-6.80;99.90
11609;DHT22;5860;52.018;8.536;2022-12-16T04:44:36;-6.90;99.90
11609;DHT22;5860;52.018;8.536;2022-12-16T04:47:21;-6.90;99.90
11609;DHT22;5860;52.018;8.536;2022-12-16T04:50:07;-6.90;99.90
11609;DHT22;5860;52.018;8.536;2022-12-16T04:52:52;-6.70;99.90
11609;DHT22;5860;52.018;8.536;2022-12-16T04:55:38;-6.60;99.90
11609;DHT22;5860;52.018;8.536;2022-12-16T04:58:30;-6.70;99.90
11609;DHT22;5860;52.018;8.536;2022-12-16T05:01:15;-6.80;99.90
11609;DHT22;5860;52.018;8.536;2022-12-16T05:04:01;-6.80;99.90
11609;DHT22;5860;52.018;8.536;2022-12-16T05:06:47;-6.70;99.90
11609;DHT22;5860;52.018;8.536;2022-12-16T05:09:32;-6.80;99.90
11609;DHT22;5860;52.018;8.536;2022-12-16T05:12:17;-6.70;99.90
11609;DHT22;5860;52.018;8.536;2022-12-16T05:15:03;-6.80;99.90
11609;DHT22;5860;52.018;8.536;2022-12-16T05:17:49;-6.90;99.90
11609;DHT22;5860;52.018;8.536;2022-12-16T05:20:35;-6.90;99.90
11609;DHT22;5860;52.018;8.536;2022-12-16T05:23:20;-6.70;99.90
11609;DHT22;5860;52.018;8.536;2022-12-16T05:26:06;-6.70;99.90
11609;DHT22;5860;52.018;8.536;2022-12-16T05:28:51;-6.70;99.90
11609;DHT22;5860;52.018;8.536;2022-12-16T05:31:37;-6.80;99.90
11609;DHT22;5860;52.018;8.536;2022-12-16T05:34:22;-6.70;99.90
11609;DHT22;5860;52.018;8.536;2022-12-16T05:37:08;-6.80;99.90
11609;DHT22;5860;52.018;8.536;2022-12-16T05:39:54;-6.90;99.90
11609;DHT22;5860;52.018;8.536;2022-12-16T05:42:39;-6.90;99.90
11609;DHT22;5860;52.018;8.536;2022-12-16T05:45:25;-6.90;99.90
11609;DHT22;5860;52.018;8.536;2022-12-16T05:48:10;-6.80;99.90
11609;DHT22;5860;52.018;8.536;2022-12-16T05:50:56;-6.70;99.90
11609;DHT22;5860;52.018;8.536;2022-12-16T05:53:55;-6.60;99.90
11609;DHT22;5860;52.018;8.536;2022-12-16T05:56:40;-6.60;99.90
11609;DHT22;5860;52.018;8.536;2022-12-16T05:59:26;-6.60;99.90
11609;DHT22;5860;52.018;8.536;2022-12-16T06:02:12;-6.60;99.90
11609;DHT22;5860;52.018;8.536;2022-12-16T06:05:14;-6.60;99.90
11609;DHT22;5860;52.018;8.536;2022-12-16T06:07:59;-6.70;99.90
11609;DHT22;5860;52.018;8.536;2022-12-16T06:10:44;-6.80;99.90
11609;DHT22;5860;52.018;8.536;2022-12-16T06:13:30;-6.70;99.90
11609;DHT22;5860;52.018;8.536;2022-12-16T06:16:15;-6.80;99.90
11609;DHT22;5860;52.018;8.536;2022-12-16T06:19:01;-6.90;99.90
11609;DHT22;5860;52.018;8.536;2022-12-16T06:21:46;-6.90;99.90
11609;DHT22;5860;52.018;8.536;2022-12-16T06:24:32;-6.80;99.90
11609;DHT22;5860;52.018;8.536;2022-12-16T06:27:17;-6.80;99.90
11609;DHT22;5860;52.018;8.536;2022-12-16T06:30:03;-6.90;99.90
11609;DHT22;5860;52.018;8.536;2022-12-16T06:32:49;-7.00;99.90
11609;DHT22;5860;52.018;8.536;2022-12-16T06:35:34;-7.00;99.90
11609;DHT22;5860;52.018;8.536;2022-12-16T06:38:20;-6.80;99.90
11609;DHT22;5860;52.018;8.536;2022-12-16T06:41:05;-6.80;99.90
11609;DHT22;5860;52.018;8.536;2022-12-16T06:43:51;-6.90;99.90
11609;DHT22;5860;52.018;8.536;2022-12-16T06:46:36;-7.00;99.90
11609;DHT22;5860;52.018;8.536;2022-12-16T06:49:22;-6.80;99.90
11609;DHT22;5860;52.018;8.536;2022-12-16T06:52:07;-6.90;99.90
11609;DHT22;5860;52.018;8.536;2022-12-16T06:54:53;-7.00;99.90
11609;DHT22;5860;52.018;8.536;2022-12-16T06:57:38;-6.90;99.90
11609;DHT22;5860;52.018;8.536;2022-12-16T07:00:25;-6.90;99.90
11609;DHT22;5860;52.018;8.536;2022-12-16T07:03:10;-6.80;99.90
11609;DHT22;5860;52.018;8.536;2022-12-16T07:06:01;-6.90;99.90
11609;DHT22;5860;52.018;8.536;2022-12-16T07:08:46;-6.90;99.90
11609;DHT22;5860;52.018;8.536;2022-12-16T07:11:32;-6.80;99.90
11609;DHT22;5860;52.018;8.536;2022-12-16T07:14:28;-6.80;99.90
11609;DHT22;5860;52.018;8.536;2022-12-16T07:17:14;-6.90;99.90
11609;DHT22;5860;52.018;8.536;2022-12-16T07:19:59;-6.80;99.90
11609;DHT22;5860;52.018;8.536;2022-12-16T07:22:45;-6.80;99.90
11609;DHT22;5860;52.018;8.536;2022-12-16T07:25:43;-6.80;99.90
11609;DHT22;5860;52.018;8.536;2022-12-16T07:28:28;-6.80;99.90
11609;DHT22;5860;52.018;8.536;2022-12-16T07:31:14;-6.70;99.90
11609;DHT22;5860;52.018;8.536;2022-12-16T07:33:59;-6.80;99.90
11609;DHT22;5860;52.018;8.536;2022-12-16T07:36:44;-6.80;99.90
11609;DHT22;5860;52.018;8.536;2022-12-16T07:39:30;-6.80;99.90
11609;DHT22;5860;52.018;8.536;2022-12-16T07:42:21;-6.90;99.90
11609;DHT22;5860;52.018;8.536;2022-12-16T07:45:07;-6.90;99.90
11609;DHT22;5860;52.018;8.536;2022-12-16T07:47:53;-6.80;99.90
11609;DHT22;5860;52.018;8.536;2022-12-16T07:50:39;-6.70;99.90
11609;DHT22;5860;52.018;8.536;2022-12-16T07:53:25;-6.60;99.90
11609;DHT22;5860;52.018;8.536;2022-12-16T07:56:10;-6.50;99.90
11609;DHT22;5860;52.018;8.536;2022-12-16T07:58:56;-6.50;99.90
11609;DHT22;5860;52.018;8.536;2022-12-16T08:01:41;-6.50;99.90
11609;DHT22;5860;52.018;8.536;2022-12-16T08:04:27;-6.50;99.90
11609;DHT22;5860;52.018;8.536;2022-12-16T08:07:12;-6.50;99.90
11609;DHT22;5860;52.018;8.536;2022-12-16T08:09:58;-6.50;99.90
11609;DHT22;5860;52.018;8.536;2022-12-16T08:12:43;-6.50;99.90
11609;DHT22;5860;52.018;8.536;2022-12-16T08:15:29;-6.50;99.90
11609;DHT22;5860;52.018;8.536;2022-12-16T08:18:14;-6.50;99.90
11609;DHT22;5860;52.018;8.536;2022-12-16T08:21:07;-6.40;99.90
11609;DHT22;5860;52.018;8.536;2022-12-16T08:23:53;-6.40;99.90
11609;DHT22;5860;52.018;8.536;2022-12-16T08:26:40;-6.30;99.90
11609;DHT22;5860;52.018;8.536;2022-12-16T08:29:26;-6.30;99.90
11609;DHT22;5860;52.018;8.536;2022-12-16T08:32:18;-6.20;99.90
11609;DHT22;5860;52.018;8.536;2022-12-16T08:35:09;-6.20;99.90
11609;DHT22;5860;52.018;8.536;2022-12-16T08:37:58;-6.20;99.90
11609;DHT22;5860;52.018;8.536;2022-12-16T08:40:44;-6.00;99.90
11609;DHT22;5860;52.018;8.536;2022-12-16T08:43:38;-6.00;99.90
11609;DHT22;5860;52.018;8.536;2022-12-16T08:46:25;-6.00;99.90
11609;DHT22;5860;52.018;8.536;2022-12-16T08:49:11;-6.00;99.90
11609;DHT22;5860;52.018;8.536;2022-12-16T08:52:07;-6.00;99.90
11609;DHT22;5860;52.018;8.536;2022-12-16T08:58:17;-6.00;99.90
11609;DHT22;5860;52.018;8.536;2022-12-16T09:01:10;-5.90;99.90
11609;DHT22;5860;52.018;8.536;2022-12-16T09:04:00;-5.80;99.90
11609;DHT22;5860;52.018;8.536;2022-12-16T09:06:46;-5.70;99.90
11609;DHT22;5860;52.018;8.536;2022-12-16T09:09:32;-5.70;99.90
11609;DHT22;5860;52.018;8.536;2022-12-16T09:12:27;-5.60;99.90
11609;DHT22;5860;52.018;8.536;2022-12-16T09:15:16;-5.50;99.90
11609;DHT22;5860;52.018;8.536;2022-12-16T09:18:03;-5.40;99.90
11609;DHT22;5860;52.018;8.536;2022-12-16T09:21:00;-5.30;99.90
11609;DHT22;5860;52.018;8.536;2022-12-16T09:23:48;-5.30;99.90
11609;DHT22;5860;52.018;8.536;2022-12-16T09:26:34;-5.20;99.90
11609;DHT22;5860;52.018;8.536;2022-12-16T09:29:20;-5.20;99.90
11609;DHT22;5860;52.018;8.536;2022-12-16T09:32:10;-5.20;99.90
11609;DHT22;5860;52.018;8.536;2022-12-16T09:34:56;-5.10;99.90
11609;DHT22;5860;52.018;8.536;2022-12-16T09:37:46;-5.00;99.90
11609;DHT22;5860;52.018;8.536;2022-12-16T09:40:32;-4.90;99.90
11609;DHT22;5860;52.018;8.536;2022-12-16T09:46:53;-4.70;99.90
11609;DHT22;5860;52.018;8.536;2022-12-16T09:52:41;-4.50;99.90
11609;DHT22;5860;52.018;8.536;2022-12-16T09:55:36;-4.50;99.90
11609;DHT22;5860;52.018;8.536;2022-12-16T09:58:38;-4.40;99.90
11609;DHT22;5860;52.018;8.536;2022-12-16T10:01:26;-4.40;99.90
11609;DHT22;5860;52.018;8.536;2022-12-16T10:04:17;-4.30;99.90
11609;DHT22;5860;52.018;8.536;2022-12-16T10:07:02;-4.20;99.90
11609;DHT22;5860;52.018;8.536;2022-12-16T10:10:05;-4.10;99.90
11609;DHT22;5860;52.018;8.536;2022-12-16T10:16:27;-3.80;99.90
11609;DHT22;5860;52.018;8.536;2022-12-16T10:28:51;-3.30;99.90
11609;DHT22;5860;52.018;8.536;2022-12-16T10:31:41;-3.30;99.90
11609;DHT22;5860;52.018;8.536;2022-12-16T10:34:30;-3.20;99.90
11609;DHT22;5860;52.018;8.536;2022-12-16T10:37:33;-3.20;99.90
11609;DHT22;5860;52.018;8.536;2022-12-16T10:40:27;-3.10;99.90
11609;DHT22;5860;52.018;8.536;2022-12-16T10:43:33;-3.10;99.90
11609;DHT22;5860;52.018;8.536;2022-12-16T10:46:25;-2.90;99.90
11609;DHT22;5860;52.018;8.536;2022-12-16T10:49:17;-2.90;99.90
11609;DHT22;5860;52.018;8.536;2022-12-16T10:52:04;-2.80;99.90
11609;DHT22;5860;52.018;8.536;2022-12-16T10:55:18;-2.80;99.90
11609;DHT22;5860;52.018;8.536;2022-12-16T10:58:46;-2.70;99.90
11609;DHT22;5860;52.018;8.536;2022-12-16T11:01:39;-2.60;99.90
11609;DHT22;5860;52.018;8.536;2022-12-16T11:04:36;-2.50;99.90
11609;DHT22;5860;52.018;8.536;2022-12-16T11:07:49;-2.50;99.90
11609;DHT22;5860;52.018;8.536;2022-12-16T11:10:41;-2.20;99.90
11609;DHT22;5860;52.018;8.536;2022-12-16T11:13:30;-2.10;99.90
11609;DHT22;5860;52.018;8.536;2022-12-16T11:19:23;-1.90;99.90
11609;DHT22;5860;52.018;8.536;2022-12-16T11:22:20;-1.80;99.90
11609;DHT22;5860;52.018;8.536;2022-12-16T11:25:16;-1.80;99.90
11609;DHT22;5860;52.018;8.536;2022-12-16T11:28:04;-1.70;99.90
11609;DHT22;5860;52.018;8.536;2022-12-16T11:30:55;-1.50;99.90
11609;DHT22;5860;52.018;8.536;2022-12-16T11:33:43;-1.50;99.90
11609;DHT22;5860;52.018;8.536;2022-12-16T11:36:31;-1.40;99.90
11609;DHT22;5860;52.018;8.536;2022-12-16T11:39:22;-1.30;99.90
11609;DHT22;5860;52.018;8.536;2022-12-16T11:42:16;-1.30;99.90
11609;DHT22;5860;52.018;8.536;2022-12-16T11:45:04;-1.30;99.90
11609;DHT22;5860;52.018;8.536;2022-12-16T11:47:56;-1.10;99.90
11609;DHT22;5860;52.018;8.536;2022-12-16T11:50:51;-1.00;99.90
11609;DHT22;5860;52.018;8.536;2022-12-16T11:56:41;-0.80;99.90
11609;DHT22;5860;52.018;8.536;2022-12-16T11:59:54;-0.70;99.90
11609;DHT22;5860;52.018;8.536;2022-12-16T12:02:48;-0.70;99.90
11609;DHT22;5860;52.018;8.536;2022-12-16T12:09:14;-0.60;99.90
11609;DHT22;5860;52.018;8.536;2022-12-16T12:12:11;-0.60;99.90
11609;DHT22;5860;52.018;8.536;2022-12-16T12:15:41;-0.50;99.90
11609;DHT22;5860;52.018;8.536;2022-12-16T12:18:43;-0.50;99.90
11609;DHT22;5860;52.018;8.536;2022-12-16T12:22:01;-0.40;99.90
11609;DHT22;5860;52.018;8.536;2022-12-16T12:25:00;-0.40;99.90
11609;DHT22;5860;52.018;8.536;2022-12-16T12:31:11;-0.20;99.90
11609;DHT22;5860;52.018;8.536;2022-12-16T12:37:35;0.00;99.90
11609;DHT22;5860;52.018;8.536;2022-12-16T12:43:31;0.00;99.90
11609;DHT22;5860;52.018;8.536;2022-12-16T12:46:27;0.10;99.90
11609;DHT22;5860;52.018;8.536;2022-12-16T12:49:38;0.20;99.90
11609;DHT22;5860;52.018;8.536;2022-12-16T12:55:39;0.30;99.90
11609;DHT22;5860;52.018;8.536;2022-12-16T12:58:29;0.40;99.90
11609;DHT22;5860;52.018;8.536;2022-12-16T13:01:18;0.40;99.90
11609;DHT22;5860;52.018;8.536;2022-12-16T13:04:17;0.30;99.90
11609;DHT22;5860;52.018;8.536;2022-12-16T13:07:03;0.30;99.90
11609;DHT22;5860;52.018;8.536;2022-12-16T13:16:04;0.50;99.90
11609;DHT22;5860;52.018;8.536;2022-12-16T13:22:34;0.60;99.90
11609;DHT22;5860;52.018;8.536;2022-12-16T13:25:42;0.50;99.90
11609;DHT22;5860;52.018;8.536;2022-12-16T13:28:32;0.60;99.90
11609;DHT22;5860;52.018;8.536;2022-12-16T13:31:18;0.60;99.90
11609;DHT22;5860;52.018;8.536;2022-12-16T13:34:27;0.50;99.90
11609;DHT22;5860;52.018;8.536;2022-12-16T13:37:30;0.40;99.90
11609;DHT22;5860;52.018;8.536;2022-12-16T13:40:19;0.50;99.90
11609;DHT22;5860;52.018;8.536;2022-12-16T13:43:40;0.50;99.90
11609;DHT22;5860;52.018;8.536;2022-12-16T13:52:26;0.40;99.90
11609;DHT22;5860;52.018;8.536;2022-12-16T13:55:41;0.40;99.90
11609;DHT22;5860;52.018;8.536;2022-12-16T13:58:38;0.40;99.90
11609;DHT22;5860;52.018;8.536;2022-12-16T14:01:37;0.40;99.90
11609;DHT22;5860;52.018;8.536;2022-12-16T14:04:28;0.40;99.90
11609;DHT22;5860;52.018;8.536;2022-12-16T14:07:16;0.40;99.90
11609;DHT22;5860;52.018;8.536;2022-12-16T14:10:02;0.30;99.90
11609;DHT22;5860;52.018;8.536;2022-12-16T14:16:14;0.10;99.90
11609;DHT22;5860;52.018;8.536;2022-12-16T14:25:30;-0.10;99.90
11609;DHT22;5860;52.018;8.536;2022-12-16T14:28:33;-0.10;99.90
11609;DHT22;5860;52.018;8.536;2022-12-16T14:31:34;-0.20;99.90
11609;DHT22;5860;52.018;8.536;2022-12-16T14:34:25;-0.20;99.90
11609;DHT22;5860;52.018;8.536;2022-12-16T14:40:21;-0.30;99.90
11609;DHT22;5860;52.018;8.536;2022-12-16T14:43:15;-0.30;99.90
11609;DHT22;5860;52.018;8.536;2022-12-16T14:46:02;-0.40;99.90
11609;DHT22;5860;52.018;8.536;2022-12-16T14:48:49;-0.40;99.90
11609;DHT22;5860;52.018;8.536;2022-12-16T14:51:37;-0.40;99.90
11609;DHT22;5860;52.018;8.536;2022-12-16T14:54:35;-0.50;99.90
11609;DHT22;5860;52.018;8.536;2022-12-16T14:57:29;-0.40;99.90
11609;DHT22;5860;52.018;8.536;2022-12-16T15:00:33;-0.50;99.90
11609;DHT22;5860;52.018;8.536;2022-12-16T15:03:45;-0.70;99.90
11609;DHT22;5860;52.018;8.536;2022-12-16T15:06:50;-0.70;99.90
11609;DHT22;5860;52.018;8.536;2022-12-16T15:09:48;-0.80;99.90
11609;DHT22;5860;52.018;8.536;2022-12-16T15:12:40;-0.90;99.90
11609;DHT22;5860;52.018;8.536;2022-12-16T15:15:33;-0.90;99.90
11609;DHT22;5860;52.018;8.536;2022-12-16T15:18:31;-1.00;99.90
11609;DHT22;5860;52.018;8.536;2022-12-16T15:21:18;-1.10;99.90
11609;DHT22;5860;52.018;8.536;2022-12-16T15:24:23;-1.20;99.90
11609;DHT22;5860;52.018;8.536;2022-12-16T15:27:14;-1.30;99.90
11609;DHT22;5860;52.018;8.536;2022-12-16T15:30:35;-1.40;99.90
11609;DHT22;5860;52.018;8.536;2022-12-16T15:33:34;-1.60;99.90
11609;DHT22;5860;52.018;8.536;2022-12-16T15:36:33;-1.70;99.90
11609;DHT22;5860;52.018;8.536;2022-12-16T15:39:28;-1.80;99.90
11609;DHT22;5860;52.018;8.536;2022-12-16T15:42:25;-1.90;99.90
11609;DHT22;5860;52.018;8.536;2022-12-16T15:45:23;-1.90;99.90
11609;DHT22;5860;52.018;8.536;2022-12-16T15:48:17;-2.00;99.90
11609;DHT22;5860;52.018;8.536;2022-12-16T15:54:18;-2.20;99.90
11609;DHT22;5860;52.018;8.536;2022-12-16T15:57:28;-2.30;99.90
11609;DHT22;5860;52.018;8.536;2022-12-16T16:00:24;-2.30;99.90
11609;DHT22;5860;52.018;8.536;2022-12-16T16:06:02;-2.40;99.90
11609;DHT22;5860;52.018;8.536;2022-12-16T16:08:51;-2.60;99.90
11609;DHT22;5860;52.018;8.536;2022-12-16T16:11:37;-2.60;99.90
11609;DHT22;5860;52.018;8.536;2022-12-16T16:14:23;-2.60;99.90
11609;DHT22;5860;52.018;8.536;2022-12-16T16:17:20;-2.60;99.90
11609;DHT22;5860;52.018;8.536;2022-12-16T16:20:11;-2.60;99.90
11609;DHT22;5860;52.018;8.536;2022-12-16T16:22:57;-2.60;99.90
11609;DHT22;5860;52.018;8.536;2022-12-16T16:25:43;-2.70;99.90
11609;DHT22;5860;52.018;8.536;2022-12-16T16:28:30;-2.70;99.90
11609;DHT22;5860;52.018;8.536;2022-12-16T16:31:15;-2.70;99.90
11609;DHT22;5860;52.018;8.536;2022-12-16T16:34:00;-2.70;99.90
11609;DHT22;5860;52.018;8.536;2022-12-16T16:36:52;-2.80;99.90
11609;DHT22;5860;52.018;8.536;2022-12-16T16:39:39;-2.90;99.90
11609;DHT22;5860;52.018;8.536;2022-12-16T16:42:26;-2.90;99.90
11609;DHT22;5860;52.018;8.536;2022-12-16T16:45:11;-2.90;99.90
11609;DHT22;5860;52.018;8.536;2022-12-16T16:48:08;-3.00;99.90
11609;DHT22;5860;52.018;8.536;2022-12-16T16:50:55;-2.90;99.90
11609;DHT22;5860;52.018;8.536;2022-12-16T16:53:41;-2.90;99.90
11609;DHT22;5860;52.018;8.536;2022-12-16T16:56:29;-3.00;99.90
11609;DHT22;5860;52.018;8.536;2022-12-16T16:59:17;-3.00;99.90
11609;DHT22;5860;52.018;8.536;2022-12-16T17:02:18;-3.00;99.90
11609;DHT22;5860;52.018;8.536;2022-12-16T17:05:08;-3.10;99.90
11609;DHT22;5860;52.018;8.536;2022-12-16T17:07:53;-3.10;99.90
11609;DHT22;5860;52.018;8.536;2022-12-16T17:10:39;-3.10;99.90
11609;DHT22;5860;52.018;8.536;2022-12-16T17:13:24;-3.30;99.90
11609;DHT22;5860;52.018;8.536;2022-12-16T17:16:11;-3.20;99.90
11609;DHT22;5860;52.018;8.536;2022-12-16T17:18:57;-3.30;99.90
11609;DHT22;5860;52.018;8.536;2022-12-16T17:21:43;-3.20;99.90
11609;DHT22;5860;52.018;8.536;2022-12-16T17:24:29;-3.20;99.90
11609;DHT22;5860;52.018;8.536;2022-12-16T17:27:22;-3.20;99.90
11609;DHT22;5860;52.018;8.536;2022-12-16T17:30:21;-3.10;99.90
11609;DHT22;5860;52.018;8.536;2022-12-16T17:33:14;-3.20;99.90
11609;DHT22;5860;52.018;8.536;2022-12-16T17:36:00;-3.10;99.90
11609;DHT22;5860;52.018;8.536;2022-12-16T17:39:00;-3.20;99.90
11609;DHT22;5860;52.018;8.536;2022-12-16T17:41:45;-3.30;99.90
11609;DHT22;5860;52.018;8.536;2022-12-16T17:44:30;-3.30;99.90
11609;DHT22;5860;52.018;8.536;2022-12-16T17:47:16;-3.30;99.90
11609;DHT22;5860;52.018;8.536;2022-12-16T17:50:02;-3.40;99.90
11609;DHT22;5860;52.018;8.536;2022-12-16T17:52:53;-3.40;99.90
11609;DHT22;5860;52.018;8.536;2022-12-16T17:55:38;-3.40;99.90
11609;DHT22;5860;52.018;8.536;2022-12-16T17:58:32;-3.30;99.90
11609;DHT22;5860;52.018;8.536;2022-12-16T18:01:17;-3.40;99.90
11609;DHT22;5860;52.018;8.536;2022-12-16T18:04:04;-3.30;99.90
11609;DHT22;5860;52.018;8.536;2022-12-16T18:06:50;-3.40;99.90
11609;DHT22;5860;52.018;8.536;2022-12-16T18:09:35;-3.50;99.90
11609;DHT22;5860;52.018;8.536;2022-12-16T18:12:21;-3.50;99.90
11609;DHT22;5860;52.018;8.536;2022-12-16T18:15:08;-3.60;99.90
11609;DHT22;5860;52.018;8.536;2022-12-16T18:17:54;-3.60;99.90
11609;DHT22;5860;52.018;8.536;2022-12-16T18:20:39;-3.50;99.90
11609;DHT22;5860;52.018;8.536;2022-12-16T18:23:28;-3.60;99.90
11609;DHT22;5860;52.018;8.536;2022-12-16T18:26:14;-3.70;99.90
11609;DHT22;5860;52.018;8.536;2022-12-16T18:28:59;-3.70;99.90
11609;DHT22;5860;52.018;8.536;2022-12-16T18:31:47;-3.80;99.90
11609;DHT22;5860;52.018;8.536;2022-12-16T18:34:32;-3.80;99.90
11609;DHT22;5860;52.018;8.536;2022-12-16T18:37:18;-3.70;99.90
11609;DHT22;5860;52.018;8.536;2022-12-16T18:40:04;-3.70;99.90
11609;DHT22;5860;52.018;8.536;2022-12-16T18:42:50;-3.80;99.90
11609;DHT22;5860;52.018;8.536;2022-12-16T18:45:35;-3.80;99.90
11609;DHT22;5860;52.018;8.536;2022-12-16T18:48:21;-3.70;99.90
11609;DHT22;5860;52.018;8.536;2022-12-16T18:51:07;-3.80;99.90
11609;DHT22;5860;52.018;8.536;2022-12-16T18:53:52;-3.90;99.90
11609;DHT22;5860;52.018;8.536;2022-12-16T18:56:38;-3.90;99.90
11609;DHT22;5860;52.018;8.536;2022-12-16T18:59:23;-3.90;99.90
11609;DHT22;5860;52.018;8.536;2022-12-16T19:02:09;-3.90;99.90
11609;DHT22;5860;52.018;8.536;2022-12-16T19:04:54;-3.80;99.90
11609;DHT22;5860;52.018;8.536;2022-12-16T19:07:40;-3.90;99.90
11609;DHT22;5860;52.018;8.536;2022-12-16T19:10:25;-3.90;99.90
11609;DHT22;5860;52.018;8.536;2022-12-16T19:13:14;-3.90;99.90
11609;DHT22;5860;52.018;8.536;2022-12-16T19:16:01;-3.90;99.90
11609;DHT22;5860;52.018;8.536;2022-12-16T19:18:47;-4.00;99.90
11609;DHT22;5860;52.018;8.536;2022-12-16T19:21:32;-4.00;99.90
11609;DHT22;5860;52.018;8.536;2022-12-16T19:24:23;-4.00;99.90
11609;DHT22;5860;52.018;8.536;2022-12-16T19:27:11;-3.90;99.90
11609;DHT22;5860;52.018;8.536;2022-12-16T19:30:00;-4.00;99.90
11609;DHT22;5860;52.018;8.536;2022-12-16T19:32:47;-4.10;99.90
11609;DHT22;5860;52.018;8.536;2022-12-16T19:35:32;-4.10;99.90
11609;DHT22;5860;52.018;8.536;2022-12-16T19:38:38;-4.10;99.90